createdAt,value
2023-03-01T00:03:17.323Z,63.80
2023-03-01T00:07:06.481Z,59.40
2023-03-01T00:10:56.400Z,54.20
2023-03-01T00:14:45.052Z,58.30
2023-03-01T00:18:34.297Z,54.70
2023-03-01T00:22:23.882Z,49.50
2023-03-01T00:26:13.843Z,48.10
2023-03-01T00:44:43.057Z,33.90
2023-03-01T00:47:54.851Z,34.40
2023-03-01T00:50:48.406Z,45.00
2023-03-01T00:54:09.644Z,43.50
2023-03-01T00:57:21.134Z,44.60
2023-03-01T01:00:42.999Z,39.10
2023-03-01T01:03:33.589Z,45.00
2023-03-01T01:06:26.960Z,38.20
2023-03-01T01:09:37.102Z,41.70
2023-03-01T01:13:05.991Z,41.90
2023-03-01T01:16:10.536Z,45.50
2023-03-01T01:19:41.974Z,43.00
2023-03-01T01:23:16.754Z,40.50
2023-03-01T01:26:51.205Z,35.60
2023-03-01T01:30:19.074Z,41.60
2023-03-01T01:33:57.140Z,46.40
2023-03-01T01:37:13.906Z,45.60
2023-03-01T01:39:45.333Z,49.10
2023-03-01T01:43:08.835Z,49.00
2023-03-01T01:46:15.351Z,46.30
2023-03-01T01:50:04.331Z,47.00
2023-03-01T01:52:43.619Z,43.80
2023-03-01T01:56:00.427Z,40.10
2023-03-01T01:59:05.874Z,42.10
2023-03-01T02:01:58.978Z,40.70
2023-03-01T02:05:04.773Z,41.90
2023-03-01T02:08:39.062Z,39.00
2023-03-01T02:12:26.509Z,36.30
2023-03-01T02:18:51.783Z,38.60
2023-03-01T02:22:31.310Z,40.30
2023-03-01T02:26:14.448Z,37.60
2023-03-01T02:29:36.441Z,29.40
2023-03-01T02:32:48.203Z,39.80
2023-03-01T02:35:57.710Z,43.20
2023-03-01T02:38:46.335Z,42.70
2023-03-01T02:41:40.480Z,44.10
2023-03-01T02:48:00.597Z,40.30
2023-03-01T02:51:30.424Z,42.40
2023-03-01T02:57:00.194Z,44.50
2023-03-01T02:59:40.708Z,43.80
2023-03-01T03:03:21.689Z,44.20
2023-03-01T03:06:29.009Z,49.00
2023-03-01T03:09:11.890Z,47.60
2023-03-01T03:12:06.101Z,53.00
2023-03-01T03:15:01.980Z,49.20
2023-03-01T03:18:32.701Z,49.30
2023-03-01T03:21:44.602Z,34.50
2023-03-01T03:25:02.723Z,42.20
2023-03-01T03:27:43.802Z,42.30
2023-03-01T03:30:22.613Z,43.70
2023-03-01T03:33:21.265Z,47.00
2023-03-01T03:36:26.803Z,46.00
2023-03-01T03:39:20.882Z,43.40
2023-03-01T03:42:13.910Z,42.80
2023-03-01T03:45:12.505Z,43.10
2023-03-01T03:48:00.994Z,41.40
2023-03-01T03:51:29.509Z,43.20
2023-03-01T03:54:52.911Z,43.80
2023-03-01T03:57:55.145Z,43.40
2023-03-01T04:01:27.334Z,43.60
2023-03-01T04:04:05.294Z,43.20
2023-03-01T04:06:56.892Z,37.20
2023-03-01T04:09:52.295Z,39.00
2023-03-01T04:13:26.502Z,41.80
2023-03-01T04:16:48.842Z,41.80
2023-03-01T04:19:51.237Z,41.00
2023-03-01T04:23:21.750Z,41.50
2023-03-01T04:30:30.343Z,39.00
2023-03-01T04:34:19.036Z,29.30
2023-03-01T04:37:42.835Z,42.70
2023-03-01T04:41:13.034Z,45.00
2023-03-01T04:44:36.383Z,52.00
2023-03-01T04:47:41.517Z,52.00
2023-03-01T04:51:06.617Z,46.30
2023-03-01T04:54:18.628Z,50.50
2023-03-01T04:57:40.193Z,55.80
2023-03-01T05:00:54.615Z,53.60
2023-03-01T05:04:14.191Z,51.60
2023-03-01T05:07:25.070Z,55.20
2023-03-01T05:10:36.299Z,49.10
2023-03-01T05:13:24.791Z,57.70
2023-03-01T05:16:30.624Z,55.90
2023-03-01T05:19:23.889Z,55.80
2023-03-01T05:22:33.024Z,52.60
2023-03-01T05:25:54.883Z,39.40
2023-03-01T05:29:06.827Z,53.30
2023-03-01T05:32:17.265Z,56.50
2023-03-01T05:35:12.068Z,52.20
2023-03-01T05:38:00.681Z,53.50
2023-03-01T05:40:35.256Z,53.30
2023-03-01T05:43:34.956Z,55.40
2023-03-01T05:46:08.572Z,52.60
2023-03-01T05:48:41.623Z,49.30
2023-03-01T05:51:18.687Z,45.60
2023-03-01T05:54:29.911Z,47.80
2023-03-01T05:57:03.444Z,46.00
2023-03-01T05:59:45.776Z,42.00
2023-03-01T06:02:13.932Z,44.50
2023-03-01T06:05:14.074Z,48.50
2023-03-01T06:08:03.276Z,51.60
2023-03-01T06:11:15.457Z,45.70
2023-03-01T06:14:15.601Z,48.70
2023-03-01T06:16:47.082Z,52.70
2023-03-01T06:19:24.153Z,57.00
2023-03-01T06:21:58.913Z,59.20
2023-03-01T06:25:09.411Z,61.90
2023-03-01T06:27:41.069Z,54.40
2023-03-01T06:30:29.552Z,53.80
2023-03-01T06:33:03.510Z,59.50
2023-03-01T06:36:35.908Z,73.00
2023-03-01T06:39:15.281Z,70.30
2023-03-01T06:42:24.290Z,49.70
2023-03-01T06:44:52.417Z,70.70
2023-03-01T06:47:23.950Z,70.30
2023-03-01T06:53:12.922Z,66.80
2023-03-01T06:56:01.389Z,67.40
2023-03-01T06:58:43.191Z,80.50
2023-03-01T07:01:20.658Z,68.70
2023-03-01T07:04:20.741Z,72.20
2023-03-01T07:07:19.119Z,75.10
2023-03-01T07:10:07.418Z,79.20
2023-03-01T07:12:47.561Z,84.40
2023-03-01T07:15:30.436Z,74.00
2023-03-01T07:18:21.668Z,75.90
2023-03-01T07:21:32.345Z,73.50
2023-03-01T07:24:42.858Z,65.10
2023-03-01T07:27:32.207Z,63.90
2023-03-01T07:30:33.819Z,60.80
2023-03-01T07:33:48.225Z,59.60
2023-03-01T07:36:53.396Z,60.40
2023-03-01T07:39:42.083Z,66.60
2023-03-01T07:42:33.569Z,69.90
2023-03-01T07:45:54.895Z,68.40
2023-03-01T07:48:25.966Z,63.80
2023-03-01T07:50:57.343Z,71.50
2023-03-01T07:53:51.645Z,66.00
2023-03-01T07:56:44.885Z,67.60
2023-03-01T07:59:30.981Z,67.90
2023-03-01T08:02:59.619Z,70.80
2023-03-01T08:05:50.704Z,71.10
2023-03-01T08:08:52.516Z,70.50
2023-03-01T08:12:34.370Z,68.50
2023-03-01T08:16:23.563Z,66.20
2023-03-01T08:19:14.604Z,68.40
2023-03-01T08:22:26.072Z,70.90
2023-03-01T08:25:24.873Z,68.90
2023-03-01T08:29:13.984Z,66.00
2023-03-01T08:32:25.600Z,63.20
2023-03-01T08:35:53.509Z,63.20
2023-03-01T08:38:48.901Z,57.90
2023-03-01T08:42:00.165Z,59.10
2023-03-01T08:45:37.345Z,60.10
2023-03-01T08:48:48.717Z,59.90
2023-03-01T08:52:17.569Z,66.70
2023-03-01T08:55:09.016Z,64.50
2023-03-01T08:58:20.118Z,62.00
2023-03-01T09:01:30.000Z,59.60
2023-03-01T09:04:01.991Z,59.90
2023-03-01T09:07:05.732Z,63.00
2023-03-01T09:10:34.830Z,59.10
2023-03-01T09:13:33.560Z,58.10
2023-03-01T09:17:03.766Z,61.30
2023-03-01T09:23:40.745Z,61.30
2023-03-01T09:27:12.247Z,65.10
2023-03-01T09:30:46.590Z,57.10
2023-03-01T09:34:17.201Z,57.00
2023-03-01T09:37:23.287Z,54.80
2023-03-01T09:40:52.279Z,54.00
2023-03-01T09:44:32.653Z,51.50
2023-03-01T09:48:04.889Z,50.50
2023-03-01T09:51:06.038Z,43.10
2023-03-01T09:54:12.256Z,39.70
2023-03-01T09:57:21.850Z,37.30
2023-03-01T10:01:03.985Z,37.50
2023-03-01T10:04:45.150Z,35.10
2023-03-01T10:08:02.222Z,37.80
2023-03-01T10:11:40.409Z,35.20
2023-03-01T10:14:53.265Z,33.50
2023-03-01T10:24:10.230Z,28.50
2023-03-01T10:27:33.774Z,30.20
2023-03-01T10:30:53.140Z,28.90
2023-03-01T10:33:54.445Z,28.10
2023-03-01T10:37:23.579Z,27.20
2023-03-01T10:43:11.023Z,27.00
2023-03-01T10:46:10.164Z,26.70
2023-03-01T10:48:38.828Z,24.10
2023-03-01T10:52:08.118Z,23.20
2023-03-01T10:55:28.098Z,22.90
2023-03-01T10:58:23.318Z,21.40
2023-03-01T11:01:51.757Z,24.00
2023-03-01T11:04:44.231Z,22.80
2023-03-01T11:07:59.490Z,22.60
2023-03-01T11:11:18.231Z,25.60
2023-03-01T11:14:49.684Z,24.30
2023-03-01T11:18:45.945Z,21.30
2023-03-01T11:21:41.030Z,20.60
2023-03-01T11:25:10.302Z,21.30
2023-03-01T11:28:04.184Z,20.40
2023-03-01T11:31:43.982Z,19.50
2023-03-01T11:35:14.263Z,19.10
2023-03-01T11:38:40.674Z,19.50
2023-03-01T11:42:18.584Z,17.50
2023-03-01T12:00:55.976Z,16.80
2023-03-01T12:04:29.871Z,16.60
2023-03-01T12:07:29.948Z,15.40
2023-03-01T12:10:56.224Z,15.40
2023-03-01T12:14:28.642Z,16.30
2023-03-01T12:17:43.282Z,15.90
2023-03-01T12:24:57.608Z,15.30
2023-03-01T13:18:13.946Z,17.90
2023-03-01T13:21:04.838Z,19.80
2023-03-01T13:24:33.978Z,25.50
2023-03-01T13:27:52.908Z,17.10
2023-03-01T13:30:47.379Z,17.80
2023-03-01T13:33:51.953Z,16.50
2023-03-01T13:37:10.098Z,15.80
2023-03-01T13:40:21.971Z,14.50
2023-03-01T13:43:48.974Z,14.70
2023-03-01T13:46:55.217Z,14.60
2023-03-01T13:50:30.791Z,14.90
2023-03-01T13:53:03.610Z,14.20
2023-03-01T13:56:37.591Z,15.10
2023-03-01T13:59:31.608Z,14.70
2023-03-01T14:02:39.253Z,11.70
2023-03-01T14:12:20.468Z,11.40
2023-03-01T14:39:09.400Z,23.20
2023-03-01T14:42:31.412Z,17.70
2023-03-01T14:46:11.140Z,17.80
2023-03-01T14:49:52.845Z,21.20
2023-03-01T14:53:09.868Z,15.90
2023-03-01T14:56:22.392Z,19.60
2023-03-01T14:59:04.649Z,29.70
2023-03-01T15:02:28.185Z,24.50
2023-03-01T15:05:29.940Z,19.30
2023-03-01T15:08:58.389Z,17.80
2023-03-01T15:12:15.559Z,25.10
2023-03-01T15:16:03.485Z,19.00
2023-03-01T15:19:27.998Z,14.50
2023-03-01T15:22:43.220Z,15.00
2023-03-01T15:25:45.995Z,12.60
2023-03-01T15:28:40.824Z,14.50
2023-03-01T15:31:54.629Z,14.20
2023-03-01T15:35:05.339Z,17.40
2023-03-01T15:42:34.522Z,15.40
2023-03-01T15:45:51.054Z,14.10
2023-03-01T15:49:35.472Z,14.60
2023-03-01T15:53:02.169Z,15.60
2023-03-01T15:55:34.367Z,14.70
2023-03-01T15:58:26.390Z,16.40
2023-03-01T16:01:15.523Z,15.60
2023-03-01T16:04:06.528Z,15.50
2023-03-01T16:07:45.800Z,20.30
2023-03-01T16:11:35.708Z,18.00
2023-03-01T16:14:47.276Z,14.90
2023-03-01T16:18:01.615Z,20.20
2023-03-01T16:21:23.299Z,29.70
2023-03-01T16:24:49.342Z,40.40
2023-03-01T16:27:46.582Z,32.10
2023-03-01T16:31:24.689Z,32.90
2023-03-01T16:34:00.780Z,39.20
2023-03-01T16:37:00.916Z,53.80
2023-03-01T16:40:31.901Z,40.00
2023-03-01T16:43:55.972Z,35.90
2023-03-01T16:47:39.186Z,35.50
2023-03-01T16:51:26.854Z,40.90
2023-03-01T16:54:58.998Z,43.40
2023-03-01T16:58:19.141Z,67.60
2023-03-01T17:23:49.549Z,64.10
2023-03-01T17:27:12.501Z,67.50
2023-03-01T17:30:50.721Z,66.30
2023-03-01T17:33:52.701Z,77.30
2023-03-01T17:36:52.649Z,66.80
2023-03-01T17:39:58.247Z,78.80
2023-03-01T17:43:12.310Z,74.20
2023-03-01T17:46:51.862Z,84.40
2023-03-01T17:49:54.516Z,76.60
2023-03-01T17:52:54.655Z,71.90
2023-03-01T17:56:35.206Z,94.30
2023-03-01T17:59:59.361Z,89.70
2023-03-01T18:03:48.775Z,77.70
2023-03-01T18:06:57.065Z,93.50
2023-03-01T18:09:57.904Z,99.80
2023-03-01T18:12:49.104Z,120.40
2023-03-01T18:16:10.540Z,96.50
2023-03-01T18:19:00.325Z,92.30
2023-03-01T18:22:05.262Z,92.80
2023-03-01T18:25:20.802Z,95.20
2023-03-01T18:28:28.631Z,88.40
2023-03-01T18:31:33.405Z,94.00
2023-03-01T18:34:32.426Z,96.80
2023-03-01T18:38:02.040Z,84.90
2023-03-01T18:40:37.317Z,92.90
2023-03-01T18:43:50.967Z,102.70
2023-03-01T18:46:58.391Z,95.90
2023-03-01T18:50:48.956Z,92.50
2023-03-01T18:53:41.879Z,90.20
2023-03-01T18:56:43.377Z,95.00
2023-03-01T18:59:18.189Z,92.00
2023-03-01T19:02:50.900Z,88.40
2023-03-01T19:05:38.742Z,89.90
2023-03-01T19:08:43.207Z,81.30
2023-03-01T19:15:18.982Z,75.40
2023-03-01T19:19:01.768Z,85.20
2023-03-01T19:22:34.232Z,95.30
2023-03-01T19:25:38.141Z,93.20
2023-03-01T19:29:26.291Z,84.40
2023-03-01T19:33:01.465Z,86.60
2023-03-01T19:36:35.034Z,75.50
2023-03-01T19:40:05.491Z,68.00
2023-03-01T19:43:13.444Z,69.40
2023-03-01T19:46:51.217Z,133.60
2023-03-01T19:50:02.470Z,116.40
2023-03-01T19:52:55.499Z,104.50
2023-03-01T19:56:31.678Z,112.40
2023-03-01T19:59:40.782Z,97.90
2023-03-01T20:03:18.140Z,79.60
2023-03-01T20:06:01.935Z,70.60
2023-03-01T20:08:49.574Z,60.80
2023-03-01T20:11:56.441Z,60.60
2023-03-01T20:14:44.942Z,61.20
2023-03-01T20:17:26.863Z,57.50
2023-03-01T20:20:16.233Z,64.00
2023-03-01T20:23:14.585Z,68.50
2023-03-01T20:25:54.313Z,66.20
2023-03-01T20:29:03.304Z,72.60
2023-03-01T20:31:43.415Z,77.10
2023-03-01T20:34:11.919Z,75.10
2023-03-01T20:37:11.229Z,82.00
2023-03-01T20:40:15.424Z,76.70
2023-03-01T20:44:04.417Z,72.40
2023-03-01T20:47:25.147Z,67.30
2023-03-01T20:51:17.054Z,66.60
2023-03-01T20:54:56.759Z,72.50
2023-03-01T20:58:04.788Z,84.40
2023-03-01T21:01:26.453Z,88.50
2023-03-01T21:04:54.280Z,110.80
2023-03-01T21:07:48.868Z,107.30
2023-03-01T21:11:38.508Z,89.10
2023-03-01T21:15:06.781Z,83.10
2023-03-01T21:18:48.206Z,94.90
2023-03-01T21:22:25.884Z,93.60
2023-03-01T21:26:00.662Z,94.90
2023-03-01T21:29:38.236Z,91.40
2023-03-01T21:33:10.463Z,111.30
2023-03-01T21:36:34.161Z,126.10
2023-03-01T21:40:20.056Z,116.30
2023-03-01T21:43:45.049Z,104.10
2023-03-01T21:47:14.248Z,90.40
2023-03-01T21:51:03.845Z,89.40
2023-03-01T21:54:35.155Z,92.80
2023-03-01T21:58:27.506Z,102.80
2023-03-01T22:01:43.135Z,98.90
2023-03-01T22:35:04.637Z,69.50
2023-03-01T22:38:02.488Z,60.20
2023-03-01T22:41:52.493Z,58.70
2023-03-01T22:45:06.740Z,55.00
2023-03-01T22:48:05.634Z,56.30
2023-03-01T22:51:38.660Z,59.00
2023-03-01T22:55:07.518Z,59.20
2023-03-01T22:58:29.366Z,58.90
2023-03-01T23:01:50.999Z,62.00
2023-03-01T23:05:32.594Z,63.10
2023-03-01T23:08:46.135Z,76.30
2023-03-01T23:11:58.603Z,70.80
2023-03-01T23:14:42.189Z,210.50
2023-03-01T23:17:24.489Z,101.60
2023-03-01T23:20:14.641Z,82.00
2023-03-01T23:22:45.374Z,74.60
2023-03-01T23:25:33.868Z,78.60
2023-03-01T23:28:03.608Z,81.10
2023-03-01T23:31:22.630Z,74.30
2023-03-01T23:34:25.460Z,72.50
2023-03-01T23:37:36.388Z,73.40
2023-03-01T23:40:31.109Z,71.30
2023-03-01T23:43:34.921Z,69.00
2023-03-01T23:46:45.491Z,60.90
2023-03-01T23:52:22.083Z,65.00
2023-03-01T23:55:53.978Z,61.70
2023-03-01T23:59:17.648Z,57.00
